sensor_id;sensor_type;location;lat;lon;timestamp;P1;durP1;ratioP1;P2;durP2;ratioP2
1677;SDS011;6034;46.864;15.216;2023-02-28T06:02:23;6.30;;;5.70;;
1677;SDS011;6034;46.864;15.216;2023-02-28T06:04:50;6.15;;;5.13;;
1677;SDS011;6034;46.864;15.216;2023-02-28T06:07:17;6.25;;;5.30;;
1677;SDS011;6034;46.864;15.216;2023-02-28T06:09:45;7.38;;;5.57;;
1677;SDS011;6034;46.864;15.216;2023-02-28T06:12:12;6.78;;;5.13;;
1677;SDS011;6034;46.864;15.216;2023-02-28T06:14:39;11.00;;;6.82;;
1677;SDS011;6034;46.864;15.216;2023-02-28T06:17:06;7.15;;;5.75;;
1677;SDS011;6034;46.864;15.216;2023-02-28T06:19:37;6.88;;;5.90;;
1677;SDS011;6034;46.864;15.216;2023-02-28T06:22:06;6.78;;;6.07;;
1677;SDS011;6034;46.864;15.216;2023-02-28T06:24:33;7.13;;;6.20;;
1677;SDS011;6034;46.864;15.216;2023-02-28T06:27:00;6.95;;;6.10;;
1677;SDS011;6034;46.864;15.216;2023-02-28T06:29:30;8.70;;;6.82;;
1677;SDS011;6034;46.864;15.216;2023-02-28T06:31:57;7.80;;;6.07;;
1677;SDS011;6034;46.864;15.216;2023-02-28T06:34:25;12.55;;;6.32;;
1677;SDS011;6034;46.864;15.216;2023-02-28T06:36:53;11.57;;;6.93;;
1677;SDS011;6034;46.864;15.216;2023-02-28T06:39:20;8.48;;;6.10;;
1677;SDS011;6034;46.864;15.216;2023-02-28T06:41:48;6.75;;;5.97;;
1677;SDS011;6034;46.864;15.216;2023-02-28T06:44:17;6.43;;;5.60;;
1677;SDS011;6034;46.864;15.216;2023-02-28T06:46:45;6.90;;;6.10;;
1677;SDS011;6034;46.864;15.216;2023-02-28T06:49:12;7.65;;;6.38;;
1677;SDS011;6034;46.864;15.216;2023-02-28T06:51:40;7.68;;;5.60;;
1677;SDS011;6034;46.864;15.216;2023-02-28T06:54:11;13.13;;;6.40;;
1677;SDS011;6034;46.864;15.216;2023-02-28T06:56:39;6.63;;;5.45;;
1677;SDS011;6034;46.864;15.216;2023-02-28T06:59:06;7.65;;;6.55;;
1677;SDS011;6034;46.864;15.216;2023-02-28T07:01:33;7.55;;;6.20;;
1677;SDS011;6034;46.864;15.216;2023-02-28T07:04:01;9.25;;;6.15;;
1677;SDS011;6034;46.864;15.216;2023-02-28T07:06:28;8.00;;;6.20;;
1677;SDS011;6034;46.864;15.216;2023-02-28T07:08:55;7.00;;;6.30;;
1677;SDS011;6034;46.864;15.216;2023-02-28T07:11:25;8.63;;;5.97;;
1677;SDS011;6034;46.864;15.216;2023-02-28T07:13:53;9.57;;;6.45;;
1677;SDS011;6034;46.864;15.216;2023-02-28T07:16:22;7.47;;;6.75;;
1677;SDS011;6034;46.864;15.216;2023-02-28T07:18:51;11.82;;;7.68;;
1677;SDS011;6034;46.864;15.216;2023-02-28T07:21:20;8.65;;;6.60;;
1677;SDS011;6034;46.864;15.216;2023-02-28T07:23:47;8.00;;;6.85;;
1677;SDS011;6034;46.864;15.216;2023-02-28T07:26:15;8.95;;;6.72;;
1677;SDS011;6034;46.864;15.216;2023-02-28T07:28:45;7.78;;;6.80;;
1677;SDS011;6034;46.864;15.216;2023-02-28T07:31:14;8.55;;;7.60;;
1677;SDS011;6034;46.864;15.216;2023-02-28T07:33:42;9.02;;;6.65;;
1677;SDS011;6034;46.864;15.216;2023-02-28T07:36:10;10.50;;;7.60;;
1677;SDS011;6034;46.864;15.216;2023-02-28T07:38:40;9.25;;;7.45;;
1677;SDS011;6034;46.864;15.216;2023-02-28T07:41:08;10.07;;;7.55;;
1677;SDS011;6034;46.864;15.216;2023-02-28T07:43:35;8.90;;;7.38;;
1677;SDS011;6034;46.864;15.216;2023-02-28T07:46:05;9.30;;;7.93;;
1677;SDS011;6034;46.864;15.216;2023-02-28T07:48:35;10.02;;;8.00;;
1677;SDS011;6034;46.864;15.216;2023-02-28T07:51:02;9.38;;;8.35;;
1677;SDS011;6034;46.864;15.216;2023-02-28T07:53:30;7.95;;;7.15;;
1677;SDS011;6034;46.864;15.216;2023-02-28T07:55:58;8.75;;;7.70;;
1677;SDS011;6034;46.864;15.216;2023-02-28T07:58:26;10.77;;;7.43;;
1677;SDS011;6034;46.864;15.216;2023-02-28T08:00:54;12.80;;;6.95;;
1677;SDS011;6034;46.864;15.216;2023-02-28T08:03:23;9.45;;;7.57;;
1677;SDS011;6034;46.864;15.216;2023-02-28T08:05:50;9.32;;;7.30;;
1677;SDS011;6034;46.864;15.216;2023-02-28T08:08:18;9.52;;;7.13;;
1677;SDS011;6034;46.864;15.216;2023-02-28T08:10:46;10.40;;;7.10;;
1677;SDS011;6034;46.864;15.216;2023-02-28T08:13:13;9.13;;;7.43;;
1677;SDS011;6034;46.864;15.216;2023-02-28T08:15:40;8.27;;;7.05;;
1677;SDS011;6034;46.864;15.216;2023-02-28T08:18:10;6.63;;;5.75;;
1677;SDS011;6034;46.864;15.216;2023-02-28T08:20:39;9.82;;;7.25;;
1677;SDS011;6034;46.864;15.216;2023-02-28T08:23:06;9.82;;;8.27;;
1677;SDS011;6034;46.864;15.216;2023-02-28T08:25:34;8.15;;;7.32;;
1677;SDS011;6034;46.864;15.216;2023-02-28T08:28:01;7.55;;;6.30;;
1677;SDS011;6034;46.864;15.216;2023-02-28T08:30:28;10.43;;;8.30;;
1677;SDS011;6034;46.864;15.216;2023-02-28T08:32:55;10.10;;;7.88;;
1677;SDS011;6034;46.864;15.216;2023-02-28T08:35:22;11.15;;;7.78;;
1677;SDS011;6034;46.864;15.216;2023-02-28T08:37:51;12.70;;;7.97;;
1677;SDS011;6034;46.864;15.216;2023-02-28T08:40:18;11.45;;;8.13;;
1677;SDS011;6034;46.864;15.216;2023-02-28T08:42:45;11.80;;;7.32;;
1677;SDS011;6034;46.864;15.216;2023-02-28T08:45:13;9.90;;;9.00;;
1677;SDS011;6034;46.864;15.216;2023-02-28T08:47:41;10.35;;;9.25;;
1677;SDS011;6034;46.864;15.216;2023-02-28T08:50:08;9.40;;;8.48;;
1677;SDS011;6034;46.864;15.216;2023-02-28T08:52:36;15.60;;;8.07;;
1677;SDS011;6034;46.864;15.216;2023-02-28T08:55:05;17.02;;;13.23;;
1677;SDS011;6034;46.864;15.216;2023-02-28T08:57:34;14.27;;;12.07;;
1677;SDS011;6034;46.864;15.216;2023-02-28T09:00:03;11.15;;;9.20;;
1677;SDS011;6034;46.864;15.216;2023-02-28T09:02:30;8.38;;;7.55;;
1677;SDS011;6034;46.864;15.216;2023-02-28T09:04:58;9.35;;;7.47;;
1677;SDS011;6034;46.864;15.216;2023-02-28T09:07:25;12.82;;;8.43;;
1677;SDS011;6034;46.864;15.216;2023-02-28T09:09:52;9.35;;;7.80;;
1677;SDS011;6034;46.864;15.216;2023-02-28T09:12:25;10.38;;;8.02;;
1677;SDS011;6034;46.864;15.216;2023-02-28T09:14:53;11.93;;;7.70;;
1677;SDS011;6034;46.864;15.216;2023-02-28T09:17:20;13.38;;;8.55;;
1677;SDS011;6034;46.864;15.216;2023-02-28T09:19:49;13.05;;;7.82;;
1677;SDS011;6034;46.864;15.216;2023-02-28T09:22:16;10.93;;;8.82;;
1677;SDS011;6034;46.864;15.216;2023-02-28T09:24:43;11.30;;;8.45;;
1677;SDS011;6034;46.864;15.216;2023-02-28T09:27:11;10.45;;;8.07;;
1677;SDS011;6034;46.864;15.216;2023-02-28T09:29:39;8.27;;;7.43;;
1677;SDS011;6034;46.864;15.216;2023-02-28T09:32:06;9.75;;;8.13;;
1677;SDS011;6034;46.864;15.216;2023-02-28T09:34:34;12.85;;;8.30;;
1677;SDS011;6034;46.864;15.216;2023-02-28T09:37:02;9.55;;;8.00;;
1677;SDS011;6034;46.864;15.216;2023-02-28T09:39:29;10.93;;;7.97;;
1677;SDS011;6034;46.864;15.216;2023-02-28T09:41:57;12.55;;;8.50;;
1677;SDS011;6034;46.864;15.216;2023-02-28T09:44:26;8.38;;;7.57;;
1677;SDS011;6034;46.864;15.216;2023-02-28T09:46:58;14.23;;;10.15;;
1677;SDS011;6034;46.864;15.216;2023-02-28T09:49:30;11.23;;;8.98;;
1677;SDS011;6034;46.864;15.216;2023-02-28T09:52:05;11.07;;;8.32;;
1677;SDS011;6034;46.864;15.216;2023-02-28T09:54:35;11.10;;;8.27;;
1677;SDS011;6034;46.864;15.216;2023-02-28T09:57:05;11.48;;;8.35;;
1677;SDS011;6034;46.864;15.216;2023-02-28T09:59:50;10.93;;;8.20;;
1677;SDS011;6034;46.864;15.216;2023-02-28T10:05:17;11.88;;;8.85;;
1677;SDS011;6034;46.864;15.216;2023-02-28T10:07:52;11.18;;;9.27;;
1677;SDS011;6034;46.864;15.216;2023-02-28T10:10:32;10.98;;;8.25;;
1677;SDS011;6034;46.864;15.216;2023-02-28T10:13:05;12.30;;;9.02;;
1677;SDS011;6034;46.864;15.216;2023-02-28T10:15:39;10.65;;;7.88;;
1677;SDS011;6034;46.864;15.216;2023-02-28T10:18:12;11.60;;;9.30;;
1677;SDS011;6034;46.864;15.216;2023-02-28T10:20:41;11.45;;;8.20;;
1677;SDS011;6034;46.864;15.216;2023-02-28T10:23:12;10.43;;;7.57;;
1677;SDS011;6034;46.864;15.216;2023-02-28T10:25:44;11.63;;;7.97;;
1677;SDS011;6034;46.864;15.216;2023-02-28T10:28:16;13.95;;;9.60;;
1677;SDS011;6034;46.864;15.216;2023-02-28T10:30:45;11.25;;;8.00;;
1677;SDS011;6034;46.864;15.216;2023-02-28T10:33:19;10.55;;;8.40;;
1677;SDS011;6034;46.864;15.216;2023-02-28T10:35:49;10.07;;;8.48;;
1677;SDS011;6034;46.864;15.216;2023-02-28T10:38:18;12.32;;;8.85;;
1677;SDS011;6034;46.864;15.216;2023-02-28T10:40:47;9.20;;;7.85;;
1677;SDS011;6034;46.864;15.216;2023-02-28T10:43:21;11.75;;;9.43;;
1677;SDS011;6034;46.864;15.216;2023-02-28T10:45:58;10.55;;;9.32;;
1677;SDS011;6034;46.864;15.216;2023-02-28T10:48:34;11.45;;;9.98;;
1677;SDS011;6034;46.864;15.216;2023-02-28T10:51:04;13.40;;;10.48;;
1677;SDS011;6034;46.864;15.216;2023-02-28T10:56:19;13.13;;;8.98;;
1677;SDS011;6034;46.864;15.216;2023-02-28T10:58:49;11.05;;;8.18;;
1677;SDS011;6034;46.864;15.216;2023-02-28T11:01:20;10.55;;;9.07;;
1677;SDS011;6034;46.864;15.216;2023-02-28T11:03:50;9.27;;;7.63;;
1677;SDS011;6034;46.864;15.216;2023-02-28T11:06:19;11.38;;;9.20;;
1677;SDS011;6034;46.864;15.216;2023-02-28T11:08:49;10.93;;;9.35;;
1677;SDS011;6034;46.864;15.216;2023-02-28T11:11:18;9.02;;;7.75;;
1677;SDS011;6034;46.864;15.216;2023-02-28T11:13:50;10.50;;;8.75;;
1677;SDS011;6034;46.864;15.216;2023-02-28T11:16:20;10.63;;;8.55;;
1677;SDS011;6034;46.864;15.216;2023-02-28T11:18:50;11.32;;;8.68;;
1677;SDS011;6034;46.864;15.216;2023-02-28T11:21:21;9.40;;;8.07;;
1677;SDS011;6034;46.864;15.216;2023-02-28T11:23:52;9.68;;;8.40;;
1677;SDS011;6034;46.864;15.216;2023-02-28T11:26:35;11.27;;;8.57;;
1677;SDS011;6034;46.864;15.216;2023-02-28T11:29:16;12.30;;;9.38;;
1677;SDS011;6034;46.864;15.216;2023-02-28T11:32:00;10.60;;;8.20;;
1677;SDS011;6034;46.864;15.216;2023-02-28T11:34:31;9.40;;;8.50;;
1677;SDS011;6034;46.864;15.216;2023-02-28T11:36:59;9.23;;;8.20;;
1677;SDS011;6034;46.864;15.216;2023-02-28T11:39:32;10.73;;;9.55;;
1677;SDS011;6034;46.864;15.216;2023-02-28T11:44:57;14.77;;;9.13;;
1677;SDS011;6034;46.864;15.216;2023-02-28T11:47:38;12.07;;;9.60;;
1677;SDS011;6034;46.864;15.216;2023-02-28T11:50:20;12.15;;;10.57;;
1677;SDS011;6034;46.864;15.216;2023-02-28T11:52:54;12.75;;;10.40;;
1677;SDS011;6034;46.864;15.216;2023-02-28T11:55:24;13.95;;;10.90;;
1677;SDS011;6034;46.864;15.216;2023-02-28T11:57:59;12.10;;;10.10;;
1677;SDS011;6034;46.864;15.216;2023-02-28T12:00:47;10.25;;;8.82;;
1677;SDS011;6034;46.864;15.216;2023-02-28T12:03:32;14.25;;;9.88;;
1677;SDS011;6034;46.864;15.216;2023-02-28T12:06:15;15.80;;;12.45;;
1677;SDS011;6034;46.864;15.216;2023-02-28T12:08:49;13.27;;;9.38;;
1677;SDS011;6034;46.864;15.216;2023-02-28T12:11:33;11.38;;;9.90;;
1677;SDS011;6034;46.864;15.216;2023-02-28T12:14:18;15.57;;;9.77;;
1677;SDS011;6034;46.864;15.216;2023-02-28T12:17:11;12.43;;;9.55;;
1677;SDS011;6034;46.864;15.216;2023-02-28T12:19:48;17.83;;;10.40;;
1677;SDS011;6034;46.864;15.216;2023-02-28T12:22:30;13.43;;;9.13;;
1677;SDS011;6034;46.864;15.216;2023-02-28T12:27:46;17.15;;;10.00;;
1677;SDS011;6034;46.864;15.216;2023-02-28T12:30:17;13.88;;;9.85;;
1677;SDS011;6034;46.864;15.216;2023-02-28T12:32:49;14.07;;;9.82;;
1677;SDS011;6034;46.864;15.216;2023-02-28T12:35:22;11.30;;;9.85;;
1677;SDS011;6034;46.864;15.216;2023-02-28T12:37:54;16.27;;;11.00;;
1677;SDS011;6034;46.864;15.216;2023-02-28T12:40:25;16.67;;;14.98;;
1677;SDS011;6034;46.864;15.216;2023-02-28T12:42:56;14.07;;;12.15;;
1677;SDS011;6034;46.864;15.216;2023-02-28T12:45:31;14.90;;;9.90;;
1677;SDS011;6034;46.864;15.216;2023-02-28T12:48:07;14.05;;;11.07;;
1677;SDS011;6034;46.864;15.216;2023-02-28T12:50:39;13.10;;;10.50;;
1677;SDS011;6034;46.864;15.216;2023-02-28T12:53:11;12.00;;;10.57;;
1677;SDS011;6034;46.864;15.216;2023-02-28T12:55:45;14.00;;;10.50;;
1677;SDS011;6034;46.864;15.216;2023-02-28T12:58:19;13.00;;;10.95;;
1677;SDS011;6034;46.864;15.216;2023-02-28T13:01:11;13.27;;;10.45;;
1677;SDS011;6034;46.864;15.216;2023-02-28T13:04:15;12.95;;;10.43;;
1677;SDS011;6034;46.864;15.216;2023-02-28T13:07:00;16.67;;;10.88;;
1677;SDS011;6034;46.864;15.216;2023-02-28T13:09:40;12.88;;;10.00;;
1677;SDS011;6034;46.864;15.216;2023-02-28T13:12:12;13.32;;;10.73;;
1677;SDS011;6034;46.864;15.216;2023-02-28T13:14:41;12.48;;;10.80;;
1677;SDS011;6034;46.864;15.216;2023-02-28T13:17:12;13.30;;;10.20;;
1677;SDS011;6034;46.864;15.216;2023-02-28T13:19:46;13.02;;;11.10;;
1677;SDS011;6034;46.864;15.216;2023-02-28T13:22:37;12.85;;;10.68;;
1677;SDS011;6034;46.864;15.216;2023-02-28T13:28:13;13.68;;;10.70;;
1677;SDS011;6034;46.864;15.216;2023-02-28T13:31:27;14.98;;;10.93;;
1677;SDS011;6034;46.864;15.216;2023-02-28T13:36:41;14.50;;;11.10;;
1677;SDS011;6034;46.864;15.216;2023-02-28T13:42:31;14.90;;;10.85;;
1677;SDS011;6034;46.864;15.216;2023-02-28T13:45:22;16.92;;;10.93;;
1677;SDS011;6034;46.864;15.216;2023-02-28T13:47:52;15.48;;;10.98;;
1677;SDS011;6034;46.864;15.216;2023-02-28T13:50:30;14.00;;;10.68;;
1677;SDS011;6034;46.864;15.216;2023-02-28T13:53:22;14.75;;;10.52;;
1677;SDS011;6034;46.864;15.216;2023-02-28T13:56:01;16.92;;;10.70;;
1677;SDS011;6034;46.864;15.216;2023-02-28T13:58:37;15.57;;;11.30;;
1677;SDS011;6034;46.864;15.216;2023-02-28T14:07:27;17.77;;;12.40;;
1677;SDS011;6034;46.864;15.216;2023-02-28T14:09:59;14.40;;;10.88;;
1677;SDS011;6034;46.864;15.216;2023-02-28T14:15:40;15.20;;;10.73;;
1677;SDS011;6034;46.864;15.216;2023-02-28T14:18:15;15.80;;;11.35;;
1677;SDS011;6034;46.864;15.216;2023-02-28T14:20:52;14.68;;;10.60;;
1677;SDS011;6034;46.864;15.216;2023-02-28T14:26:32;16.05;;;11.85;;
1677;SDS011;6034;46.864;15.216;2023-02-28T14:29:26;14.32;;;10.60;;
1677;SDS011;6034;46.864;15.216;2023-02-28T14:32:11;18.83;;;11.93;;
1677;SDS011;6034;46.864;15.216;2023-02-28T14:34:45;14.15;;;10.18;;
1677;SDS011;6034;46.864;15.216;2023-02-28T14:37:27;14.25;;;10.82;;
1677;SDS011;6034;46.864;15.216;2023-02-28T14:39:57;16.55;;;11.35;;
1677;SDS011;6034;46.864;15.216;2023-02-28T14:42:29;15.45;;;11.95;;
1677;SDS011;6034;46.864;15.216;2023-02-28T14:44:59;15.75;;;11.10;;
1677;SDS011;6034;46.864;15.216;2023-02-28T14:47:27;15.30;;;11.70;;
1677;SDS011;6034;46.864;15.216;2023-02-28T14:49:58;18.38;;;11.10;;
1677;SDS011;6034;46.864;15.216;2023-02-28T14:52:28;14.05;;;9.98;;
1677;SDS011;6034;46.864;15.216;2023-02-28T14:54:57;16.02;;;11.43;;
1677;SDS011;6034;46.864;15.216;2023-02-28T14:57:26;15.30;;;11.75;;
1677;SDS011;6034;46.864;15.216;2023-02-28T14:59:58;13.27;;;11.23;;
1677;SDS011;6034;46.864;15.216;2023-02-28T15:02:29;14.90;;;11.70;;
1677;SDS011;6034;46.864;15.216;2023-02-28T15:05:00;13.25;;;11.30;;
1677;SDS011;6034;46.864;15.216;2023-02-28T15:07:37;13.27;;;11.18;;
1677;SDS011;6034;46.864;15.216;2023-02-28T15:10:08;14.82;;;11.02;;
1677;SDS011;6034;46.864;15.216;2023-02-28T15:12:37;15.70;;;12.75;;
1677;SDS011;6034;46.864;15.216;2023-02-28T15:15:13;14.45;;;11.73;;
1677;SDS011;6034;46.864;15.216;2023-02-28T15:17:42;13.80;;;9.93;;
1677;SDS011;6034;46.864;15.216;2023-02-28T15:20:13;14.70;;;11.43;;
1677;SDS011;6034;46.864;15.216;2023-02-28T15:22:44;19.48;;;11.57;;
1677;SDS011;6034;46.864;15.216;2023-02-28T15:25:14;13.02;;;10.98;;
1677;SDS011;6034;46.864;15.216;2023-02-28T15:27:46;17.42;;;11.27;;
1677;SDS011;6034;46.864;15.216;2023-02-28T15:30:17;16.90;;;10.48;;
1677;SDS011;6034;46.864;15.216;2023-02-28T15:33:01;16.52;;;12.45;;
1677;SDS011;6034;46.864;15.216;2023-02-28T15:35:32;13.38;;;11.05;;
1677;SDS011;6034;46.864;15.216;2023-02-28T15:38:03;17.50;;;12.05;;
1677;SDS011;6034;46.864;15.216;2023-02-28T15:40:43;15.90;;;10.98;;
1677;SDS011;6034;46.864;15.216;2023-02-28T15:43:15;17.70;;;12.70;;
1677;SDS011;6034;46.864;15.216;2023-02-28T15:45:44;18.90;;;11.55;;
1677;SDS011;6034;46.864;15.216;2023-02-28T15:48:15;17.27;;;12.15;;
1677;SDS011;6034;46.864;15.216;2023-02-28T15:50:46;17.23;;;11.70;;
1677;SDS011;6034;46.864;15.216;2023-02-28T15:53:19;15.15;;;12.25;;
1677;SDS011;6034;46.864;15.216;2023-02-28T15:55:53;16.35;;;11.35;;
1677;SDS011;6034;46.864;15.216;2023-02-28T15:58:24;16.70;;;12.18;;
1677;SDS011;6034;46.864;15.216;2023-02-28T16:01:07;13.45;;;9.85;;
1677;SDS011;6034;46.864;15.216;2023-02-28T16:03:46;15.35;;;12.05;;
1677;SDS011;6034;46.864;15.216;2023-02-28T16:09:11;15.20;;;12.00;;
1677;SDS011;6034;46.864;15.216;2023-02-28T16:11:41;15.75;;;12.60;;
1677;SDS011;6034;46.864;15.216;2023-02-28T16:14:13;15.70;;;12.30;;
1677;SDS011;6034;46.864;15.216;2023-02-28T16:16:45;22.13;;;12.00;;
1677;SDS011;6034;46.864;15.216;2023-02-28T16:19:14;15.50;;;12.43;;
1677;SDS011;6034;46.864;15.216;2023-02-28T16:21:42;16.15;;;11.60;;
1677;SDS011;6034;46.864;15.216;2023-02-28T16:24:10;14.30;;;10.77;;
1677;SDS011;6034;46.864;15.216;2023-02-28T16:26:38;14.85;;;11.63;;
1677;SDS011;6034;46.864;15.216;2023-02-28T16:29:07;16.67;;;11.50;;
1677;SDS011;6034;46.864;15.216;2023-02-28T16:31:37;12.48;;;9.70;;
1677;SDS011;6034;46.864;15.216;2023-02-28T16:34:05;16.77;;;11.52;;
1677;SDS011;6034;46.864;15.216;2023-02-28T16:36:32;16.40;;;11.45;;
1677;SDS011;6034;46.864;15.216;2023-02-28T16:39:00;11.55;;;9.50;;
1677;SDS011;6034;46.864;15.216;2023-02-28T16:41:30;15.80;;;11.32;;
1677;SDS011;6034;46.864;15.216;2023-02-28T16:43:58;13.52;;;10.43;;
1677;SDS011;6034;46.864;15.216;2023-02-28T16:46:27;15.57;;;11.77;;
1677;SDS011;6034;46.864;15.216;2023-02-28T16:48:59;15.50;;;11.18;;
1677;SDS011;6034;46.864;15.216;2023-02-28T16:51:27;18.23;;;11.50;;
1677;SDS011;6034;46.864;15.216;2023-02-28T16:53:54;14.90;;;11.00;;
1677;SDS011;6034;46.864;15.216;2023-02-28T16:56:22;11.98;;;10.75;;
1677;SDS011;6034;46.864;15.216;2023-02-28T16:58:52;16.25;;;10.60;;
1677;SDS011;6034;46.864;15.216;2023-02-28T17:01:26;15.52;;;11.73;;
1677;SDS011;6034;46.864;15.216;2023-02-28T17:03:55;16.05;;;11.50;;
1677;SDS011;6034;46.864;15.216;2023-02-28T17:06:22;15.25;;;11.25;;
1677;SDS011;6034;46.864;15.216;2023-02-28T17:08:53;15.18;;;11.98;;
1677;SDS011;6034;46.864;15.216;2023-02-28T17:11:21;18.23;;;12.40;;
1677;SDS011;6034;46.864;15.216;2023-02-28T17:13:52;15.60;;;11.40;;
1677;SDS011;6034;46.864;15.216;2023-02-28T17:16:22;16.98;;;13.15;;
1677;SDS011;6034;46.864;15.216;2023-02-28T17:18:53;18.83;;;12.15;;
1677;SDS011;6034;46.864;15.216;2023-02-28T17:21:21;13.43;;;11.00;;
1677;SDS011;6034;46.864;15.216;2023-02-28T17:23:49;15.55;;;11.68;;
1677;SDS011;6034;46.864;15.216;2023-02-28T17:26:19;16.17;;;12.07;;
1677;SDS011;6034;46.864;15.216;2023-02-28T17:28:50;18.60;;;13.00;;
1677;SDS011;6034;46.864;15.216;2023-02-28T17:31:21;16.88;;;13.45;;
1677;SDS011;6034;46.864;15.216;2023-02-28T17:33:49;16.70;;;11.98;;
1677;SDS011;6034;46.864;15.216;2023-02-28T17:36:17;18.88;;;14.15;;
1677;SDS011;6034;46.864;15.216;2023-02-28T17:38:50;19.45;;;13.60;;
1677;SDS011;6034;46.864;15.216;2023-02-28T17:41:18;19.38;;;12.98;;
1677;SDS011;6034;46.864;15.216;2023-02-28T17:43:46;17.98;;;12.25;;
1677;SDS011;6034;46.864;15.216;2023-02-28T17:46:14;19.83;;;13.07;;
1677;SDS011;6034;46.864;15.216;2023-02-28T17:48:48;19.27;;;14.02;;
1677;SDS011;6034;46.864;15.216;2023-02-28T17:51:17;17.33;;;13.10;;
1677;SDS011;6034;46.864;15.216;2023-02-28T17:53:47;18.70;;;12.90;;
1677;SDS011;6034;46.864;15.216;2023-02-28T17:56:15;17.80;;;11.25;;
1677;SDS011;6034;46.864;15.216;2023-02-28T17:58:44;17.30;;;12.38;;
1677;SDS011;6034;46.864;15.216;2023-02-28T18:01:12;17.45;;;13.32;;
1677;SDS011;6034;46.864;15.216;2023-02-28T18:03:39;16.85;;;12.32;;
1677;SDS011;6034;46.864;15.216;2023-02-28T18:06:08;15.90;;;12.02;;
1677;SDS011;6034;46.864;15.216;2023-02-28T18:08:42;19.25;;;13.77;;
1677;SDS011;6034;46.864;15.216;2023-02-28T18:11:10;23.23;;;11.85;;
1677;SDS011;6034;46.864;15.216;2023-02-28T18:13:46;14.55;;;11.50;;
1677;SDS011;6034;46.864;15.216;2023-02-28T18:16:15;15.20;;;10.98;;
1677;SDS011;6034;46.864;15.216;2023-02-28T18:18:43;16.60;;;14.10;;
1677;SDS011;6034;46.864;15.216;2023-02-28T18:21:13;15.43;;;11.38;;
1677;SDS011;6034;46.864;15.216;2023-02-28T18:23:42;17.67;;;12.57;;
1677;SDS011;6034;46.864;15.216;2023-02-28T18:26:14;19.08;;;12.48;;
1677;SDS011;6034;46.864;15.216;2023-02-28T18:28:44;18.75;;;11.07;;
1677;SDS011;6034;46.864;15.216;2023-02-28T18:31:14;19.15;;;13.25;;
1677;SDS011;6034;46.864;15.216;2023-02-28T18:33:47;21.77;;;17.30;;
1677;SDS011;6034;46.864;15.216;2023-02-28T18:36:19;16.80;;;12.80;;
1677;SDS011;6034;46.864;15.216;2023-02-28T18:38:48;21.90;;;12.45;;
1677;SDS011;6034;46.864;15.216;2023-02-28T18:41:16;18.75;;;13.85;;
1677;SDS011;6034;46.864;15.216;2023-02-28T18:43:46;16.50;;;12.68;;
1677;SDS011;6034;46.864;15.216;2023-02-28T18:46:16;15.80;;;11.82;;
1677;SDS011;6034;46.864;15.216;2023-02-28T18:48:45;16.67;;;12.30;;
1677;SDS011;6034;46.864;15.216;2023-02-28T18:51:14;22.30;;;13.20;;
1677;SDS011;6034;46.864;15.216;2023-02-28T18:53:48;16.13;;;12.90;;
1677;SDS011;6034;46.864;15.216;2023-02-28T18:56:18;16.83;;;10.93;;
1677;SDS011;6034;46.864;15.216;2023-02-28T18:58:47;20.80;;;12.90;;
1677;SDS011;6034;46.864;15.216;2023-02-28T19:01:16;17.83;;;10.88;;
1677;SDS011;6034;46.864;15.216;2023-02-28T19:03:46;17.35;;;12.07;;
1677;SDS011;6034;46.864;15.216;2023-02-28T19:06:15;17.27;;;11.70;;
1677;SDS011;6034;46.864;15.216;2023-02-28T19:08:44;17.83;;;12.10;;
1677;SDS011;6034;46.864;15.216;2023-02-28T19:11:18;16.38;;;12.68;;
1677;SDS011;6034;46.864;15.216;2023-02-28T19:13:47;13.45;;;10.30;;
1677;SDS011;6034;46.864;15.216;2023-02-28T19:16:16;13.93;;;10.57;;
1677;SDS011;6034;46.864;15.216;2023-02-28T19:18:46;14.23;;;11.20;;
1677;SDS011;6034;46.864;15.216;2023-02-28T19:21:15;17.40;;;11.60;;
1677;SDS011;6034;46.864;15.216;2023-02-28T19:23:50;17.55;;;12.85;;
1677;SDS011;6034;46.864;15.216;2023-02-28T19:26:21;21.55;;;13.60;;
1677;SDS011;6034;46.864;15.216;2023-02-28T19:28:50;25.50;;;15.43;;
1677;SDS011;6034;46.864;15.216;2023-02-28T19:31:19;20.33;;;14.40;;
1677;SDS011;6034;46.864;15.216;2023-02-28T19:33:49;26.05;;;14.90;;
1677;SDS011;6034;46.864;15.216;2023-02-28T19:36:18;22.42;;;14.75;;
1677;SDS011;6034;46.864;15.216;2023-02-28T19:38:48;18.25;;;13.13;;
1677;SDS011;6034;46.864;15.216;2023-02-28T19:41:21;23.13;;;14.20;;
1677;SDS011;6034;46.864;15.216;2023-02-28T19:43:51;23.73;;;18.17;;
1677;SDS011;6034;46.864;15.216;2023-02-28T19:46:19;27.70;;;18.40;;
1677;SDS011;6034;46.864;15.216;2023-02-28T19:48:47;21.08;;;15.32;;
1677;SDS011;6034;46.864;15.216;2023-02-28T19:51:18;18.95;;;14.00;;
1677;SDS011;6034;46.864;15.216;2023-02-28T19:53:47;27.05;;;16.50;;
1677;SDS011;6034;46.864;15.216;2023-02-28T19:56:16;21.77;;;14.60;;
1677;SDS011;6034;46.864;15.216;2023-02-28T19:58:47;19.92;;;14.57;;
1677;SDS011;6034;46.864;15.216;2023-02-28T20:01:16;19.13;;;12.70;;
1677;SDS011;6034;46.864;15.216;2023-02-28T20:03:46;17.80;;;11.57;;
1677;SDS011;6034;46.864;15.216;2023-02-28T20:06:15;21.25;;;12.90;;
1677;SDS011;6034;46.864;15.216;2023-02-28T20:08:44;14.80;;;11.75;;
1677;SDS011;6034;46.864;15.216;2023-02-28T20:11:13;15.40;;;11.48;;
1677;SDS011;6034;46.864;15.216;2023-02-28T20:13:45;16.88;;;11.55;;
1677;SDS011;6034;46.864;15.216;2023-02-28T20:16:16;17.35;;;14.20;;
1677;SDS011;6034;46.864;15.216;2023-02-28T20:18:48;19.73;;;13.25;;
1677;SDS011;6034;46.864;15.216;2023-02-28T20:21:16;17.75;;;11.25;;
1677;SDS011;6034;46.864;15.216;2023-02-28T20:23:45;15.55;;;10.40;;
1677;SDS011;6034;46.864;15.216;2023-02-28T20:26:16;16.00;;;10.65;;
1677;SDS011;6034;46.864;15.216;2023-02-28T20:28:45;14.15;;;10.45;;
1677;SDS011;6034;46.864;15.216;2023-02-28T20:31:16;13.40;;;11.10;;
1677;SDS011;6034;46.864;15.216;2023-02-28T20:33:47;17.13;;;10.82;;
1677;SDS011;6034;46.864;15.216;2023-02-28T20:36:16;13.75;;;9.95;;
1677;SDS011;6034;46.864;15.216;2023-02-28T20:38:45;12.10;;;10.00;;
1677;SDS011;6034;46.864;15.216;2023-02-28T20:41:17;15.48;;;10.23;;
1677;SDS011;6034;46.864;15.216;2023-02-28T20:43:51;15.55;;;9.55;;
1677;SDS011;6034;46.864;15.216;2023-02-28T20:46:20;15.82;;;10.40;;
1677;SDS011;6034;46.864;15.216;2023-02-28T20:48:49;13.98;;;9.63;;
1677;SDS011;6034;46.864;15.216;2023-02-28T20:51:18;12.88;;;8.85;;
1677;SDS011;6034;46.864;15.216;2023-02-28T20:53:46;17.55;;;9.60;;
1677;SDS011;6034;46.864;15.216;2023-02-28T20:56:15;12.50;;;9.07;;
1677;SDS011;6034;46.864;15.216;2023-02-28T20:58:45;10.98;;;8.90;;
1677;SDS011;6034;46.864;15.216;2023-02-28T21:01:17;12.32;;;7.60;;
1677;SDS011;6034;46.864;15.216;2023-02-28T21:03:51;16.20;;;9.60;;
1677;SDS011;6034;46.864;15.216;2023-02-28T21:06:21;13.05;;;8.48;;
1677;SDS011;6034;46.864;15.216;2023-02-28T21:08:50;15.68;;;10.18;;
1677;SDS011;6034;46.864;15.216;2023-02-28T21:11:21;18.55;;;9.48;;
1677;SDS011;6034;46.864;15.216;2023-02-28T21:13:52;14.50;;;8.95;;
1677;SDS011;6034;46.864;15.216;2023-02-28T21:16:21;11.13;;;7.93;;
1677;SDS011;6034;46.864;15.216;2023-02-28T21:18:50;11.65;;;8.10;;
1677;SDS011;6034;46.864;15.216;2023-02-28T21:21:19;10.35;;;7.22;;
1677;SDS011;6034;46.864;15.216;2023-02-28T21:23:48;11.10;;;7.55;;
1677;SDS011;6034;46.864;15.216;2023-02-28T21:26:17;9.57;;;7.28;;
1677;SDS011;6034;46.864;15.216;2023-02-28T21:28:47;12.20;;;7.65;;
1677;SDS011;6034;46.864;15.216;2023-02-28T21:31:17;10.88;;;8.38;;
1677;SDS011;6034;46.864;15.216;2023-02-28T21:33:46;9.77;;;7.28;;
1677;SDS011;6034;46.864;15.216;2023-02-28T21:36:14;11.73;;;8.10;;
1677;SDS011;6034;46.864;15.216;2023-02-28T21:38:43;14.30;;;9.27;;
1677;SDS011;6034;46.864;15.216;2023-02-28T21:41:12;16.13;;;8.77;;
1677;SDS011;6034;46.864;15.216;2023-02-28T21:43:40;12.43;;;8.43;;